This is the latest recevied weather packets stored in our database for station/object E20ZNR-1. If no packets are shown the sender has not sent any weather packets the latest 1 day(s).
| Time | Temp. | Humidity | Pressure | Rain* | Wind** | Luminosity | Snow |
|---|---|---|---|---|---|---|---|
| 1836274766 | 36.11° C | 59% | 1005 hPa | - | 0 m/s | 0 W/m² | - |
| 1778056771 | 35.56° C | 59% | 1002 hPa | - | 0 m/s | 0 W/m² | - |
| 1778055845 | 34.44° C | 60% | 1002 hPa | - | 0 m/s | 0 W/m² | - |
| 1778054920 | 33.89° C | 61% | 1003 hPa | - | 0 m/s | 0 W/m² | - |
| 1778053995 | 34.44° C | 57% | 1003 hPa | - | 0 m/s | 0 W/m² | - |
| 1778053069 | 35° C | 56% | 1003 hPa | - | 0 m/s | 0 W/m² | - |
| 1778052144 | 36.11° C | 52% | 1003 hPa | - | 0 m/s | 0 W/m² | - |
| 1778051219 | 35.56° C | 51% | 1003 hPa | - | 0 m/s | 0 W/m² | - |
| 1778050293 | 35.56° C | 56% | 1004 hPa | - | 0 m/s | 0 W/m² | - |
| 1778049368 | 37.22° C | 54% | 1004 hPa | - | 0 m/s | 0 W/m² | - |
| 1778048443 | 36.11° C | 57% | 1004 hPa | - | 0 m/s | 0 W/m² | - |
| 1778047517 | 36.67° C | 55% | 1004 hPa | - | 0 m/s | 0 W/m² | - |
| 1778046592 | 39.44° C | 48% | 1004 hPa | - | 0 m/s | 0 W/m² | - |
| 1778045666 | 41.11° C | 47% | 1005 hPa | - | 0 m/s | 0 W/m² | - |
| 1778044741 | 39.44° C | 50% | 1005 hPa | - | 0 m/s | 0 W/m² | - |
| 1778043815 | 38.33° C | 49% | 1005 hPa | - | 0 m/s | 0 W/m² | - |
| 1778042890 | 38.89° C | 48% | 1005 hPa | - | 0 m/s | 0 W/m² | - |
| 1778041965 | 39.44° C | 54% | 1005 hPa | - | 0 m/s | 0 W/m² | - |
| 1778041040 | 37.22° C | 53% | 1006 hPa | - | 0 m/s | 0 W/m² | - |
| 1778040115 | 36.67° C | 54% | 1006 hPa | - | 0 m/s | 0 W/m² | - |
| 1778039190 | 36.67° C | 54% | 1006 hPa | - | 0 m/s | 0 W/m² | - |
| 1778038265 | 38.89° C | 50% | 1006 hPa | - | 0 m/s | 0 W/m² | - |
| 1778037340 | 37.78° C | 59% | 1006 hPa | - | 0 m/s | 0 W/m² | - |
| 1778036414 | 36.11° C | 60% | 1007 hPa | - | 0 m/s | 0 W/m² | - |
| 1778035489 | 36.11° C | 62% | 1007 hPa | - | 0 m/s | 0 W/m² | - |
* Rain since midnight (hover to see other rain measurements)
** Current wind speed in m/s (hover to see current wind gust speed)